createdAt,value
2023-05-11T00:02:25.872Z,10.97
2023-05-11T00:04:54.267Z,10.53
2023-05-11T00:07:21.735Z,11.70
2023-05-11T00:09:48.568Z,12.50
2023-05-11T00:12:15.452Z,12.30
2023-05-11T00:14:42.357Z,11.67
2023-05-11T00:17:09.186Z,12.67
2023-05-11T00:19:36.069Z,12.50
2023-05-11T00:22:02.955Z,11.10
2023-05-11T00:24:30.023Z,12.70
2023-05-11T00:26:56.898Z,11.80
2023-05-11T00:29:23.735Z,12.23
2023-05-11T00:31:51.129Z,12.07
2023-05-11T00:34:18.350Z,11.93
2023-05-11T00:36:45.420Z,11.87
2023-05-11T00:39:12.596Z,10.73
2023-05-11T00:41:39.609Z,12.20
2023-05-11T00:44:06.707Z,11.33
2023-05-11T00:46:34.084Z,12.90
2023-05-11T00:49:01.054Z,12.20
2023-05-11T00:51:28.126Z,13.50
2023-05-11T00:53:55.126Z,12.57
2023-05-11T00:56:22.315Z,14.27
2023-05-11T00:58:49.312Z,12.07
2023-05-11T01:01:18.060Z,12.77
2023-05-11T01:03:46.441Z,13.03
2023-05-11T01:06:35.860Z,13.30
2023-05-11T01:09:35.999Z,14.23
2023-05-11T01:12:15.842Z,14.20
2023-05-11T01:15:14.230Z,15.17
2023-05-11T01:18:06.226Z,13.07
2023-05-11T01:20:33.304Z,14.23
2023-05-11T01:23:18.156Z,15.00
2023-05-11T01:26:35.290Z,13.70
2023-05-11T01:29:41.004Z,14.30
2023-05-11T01:32:18.872Z,14.03
2023-05-11T01:34:47.517Z,13.67
2023-05-11T01:37:22.482Z,14.10
2023-05-11T01:39:57.977Z,14.63
2023-05-11T01:42:42.184Z,14.33
2023-05-11T01:45:11.749Z,15.30
2023-05-11T01:47:41.763Z,15.23
2023-05-11T01:50:09.816Z,15.60
2023-05-11T01:52:39.727Z,15.57
2023-05-11T01:55:08.352Z,16.10
2023-05-11T01:57:38.387Z,14.67
2023-05-11T02:00:06.512Z,16.00
2023-05-11T02:02:35.634Z,13.80
2023-05-11T02:05:05.132Z,14.40
2023-05-11T02:07:32.675Z,14.20
2023-05-11T02:10:00.797Z,13.63
2023-05-11T02:12:28.874Z,14.73
2023-05-11T02:14:57.259Z,15.03
2023-05-11T02:17:25.332Z,14.80
2023-05-11T02:19:53.871Z,13.87
2023-05-11T02:22:23.689Z,13.87
2023-05-11T02:24:50.809Z,14.13
2023-05-11T02:27:17.771Z,14.97
2023-05-11T02:29:44.810Z,13.80
2023-05-11T02:32:17.545Z,14.37
2023-05-11T02:34:55.530Z,13.50
2023-05-11T02:37:25.680Z,13.10
2023-05-11T02:40:03.720Z,13.27
2023-05-11T02:42:36.738Z,12.67
2023-05-11T02:45:08.234Z,12.27
2023-05-11T02:47:54.936Z,11.53
2023-05-11T02:50:25.501Z,12.63
2023-05-11T02:52:56.357Z,12.90
2023-05-11T02:55:24.156Z,12.20
2023-05-11T02:57:51.195Z,11.40
2023-05-11T03:00:18.592Z,11.17
2023-05-11T03:02:45.777Z,10.20
2023-05-11T03:05:12.718Z,11.17
2023-05-11T03:07:39.756Z,9.10
2023-05-11T03:10:08.402Z,11.27
2023-05-11T03:12:35.703Z,10.20
2023-05-11T03:15:04.509Z,9.83
2023-05-11T03:17:32.030Z,9.30
2023-05-11T03:20:03.435Z,10.23
2023-05-11T03:22:31.645Z,9.63
2023-05-11T03:24:58.923Z,9.47
2023-05-11T03:27:27.497Z,10.20
2023-05-11T03:29:57.267Z,10.00
2023-05-11T03:32:24.372Z,10.10
2023-05-11T03:34:52.224Z,9.23
2023-05-11T03:37:20.578Z,10.10
2023-05-11T03:39:52.534Z,9.77
2023-05-11T03:42:22.039Z,10.07
2023-05-11T03:44:51.001Z,9.87
2023-05-11T03:47:18.792Z,9.70
2023-05-11T03:49:46.381Z,9.77
2023-05-11T03:52:13.820Z,8.90
2023-05-11T03:54:43.245Z,8.60
2023-05-11T03:57:10.925Z,9.30
2023-05-11T03:59:40.410Z,9.27
2023-05-11T04:02:08.708Z,8.87
2023-05-11T04:04:35.647Z,7.70
2023-05-11T04:07:02.635Z,8.67
2023-05-11T04:09:29.510Z,8.47
2023-05-11T04:11:56.432Z,8.40
2023-05-11T04:14:23.285Z,9.10
2023-05-11T04:16:50.125Z,8.57
2023-05-11T04:19:17.002Z,8.30
2023-05-11T04:21:43.877Z,8.13
2023-05-11T04:24:10.849Z,7.50
2023-05-11T04:26:37.727Z,6.70
2023-05-11T04:29:05.027Z,7.40
2023-05-11T04:31:32.291Z,7.47
2023-05-11T04:33:59.264Z,6.57
2023-05-11T04:36:26.214Z,7.90
2023-05-11T04:38:53.306Z,6.60
2023-05-11T04:41:20.726Z,6.87
2023-05-11T04:43:47.579Z,6.97
2023-05-11T04:46:14.634Z,6.67
2023-05-11T04:48:41.762Z,6.40
2023-05-11T04:51:08.809Z,6.40
2023-05-11T04:53:35.724Z,7.37
2023-05-11T04:56:02.636Z,6.90
2023-05-11T04:58:29.513Z,6.50
2023-05-11T05:00:56.439Z,7.33
2023-05-11T05:03:23.435Z,7.87
2023-05-11T05:05:50.933Z,6.73
2023-05-11T05:08:18.667Z,6.43
2023-05-11T05:10:47.607Z,6.63
2023-05-11T05:13:16.742Z,6.67
2023-05-11T05:15:44.017Z,6.00
2023-05-11T05:18:11.008Z,7.70
2023-05-11T05:20:37.906Z,7.80
2023-05-11T05:23:05.675Z,7.20
2023-05-11T05:25:32.548Z,7.40
2023-05-11T05:27:59.483Z,7.90
2023-05-11T05:30:26.398Z,7.27
2023-05-11T05:32:54.882Z,7.20
2023-05-11T05:35:22.214Z,7.40
2023-05-11T05:37:49.122Z,6.73
2023-05-11T05:40:16.543Z,6.47
2023-05-11T05:42:43.901Z,5.50
2023-05-11T05:45:13.840Z,6.27
2023-05-11T05:47:41.868Z,5.63
2023-05-11T05:50:09.346Z,5.93
2023-05-11T05:52:37.091Z,5.77
2023-05-11T05:55:04.275Z,5.50
2023-05-11T05:57:31.303Z,4.83
2023-05-11T05:59:58.223Z,5.23
2023-05-11T06:02:25.201Z,5.57
2023-05-11T06:04:52.209Z,4.87
2023-05-11T06:07:19.109Z,5.37
2023-05-11T06:09:45.985Z,5.07
2023-05-11T06:12:12.915Z,8.23
2023-05-11T06:14:41.285Z,4.27
2023-05-11T06:17:08.138Z,4.00
2023-05-11T06:19:35.202Z,4.30
2023-05-11T06:22:03.147Z,3.90
2023-05-11T06:24:31.906Z,4.10
2023-05-11T06:26:58.813Z,4.30
2023-05-11T06:29:25.755Z,4.17
2023-05-11T06:31:54.297Z,3.67
2023-05-11T06:34:22.307Z,3.93
2023-05-11T06:36:49.372Z,4.07
2023-05-11T06:39:16.235Z,3.50
2023-05-11T06:41:43.130Z,3.43
2023-05-11T06:44:10.128Z,3.73
2023-05-11T06:46:36.985Z,2.80
2023-05-11T06:49:03.915Z,3.33
2023-05-11T06:51:30.809Z,2.90
2023-05-11T06:53:57.726Z,2.43
2023-05-11T06:56:24.598Z,2.70
2023-05-11T06:58:51.543Z,2.90
2023-05-11T07:01:18.487Z,2.90
2023-05-11T07:03:45.428Z,2.77
2023-05-11T07:06:12.289Z,2.80
2023-05-11T07:08:39.488Z,2.70
2023-05-11T07:11:07.330Z,2.80
2023-05-11T07:13:34.359Z,2.40
2023-05-11T07:16:01.421Z,2.57
2023-05-11T07:18:29.524Z,2.73
2023-05-11T07:20:56.443Z,2.80
2023-05-11T07:23:23.760Z,2.50
2023-05-11T07:25:51.730Z,2.57
2023-05-11T07:28:18.805Z,2.30
2023-05-11T07:30:45.671Z,2.87
2023-05-11T07:33:12.543Z,2.10
2023-05-11T07:35:39.414Z,2.60
2023-05-11T07:38:08.069Z,2.50
2023-05-11T07:40:35.484Z,2.60
2023-05-11T07:43:02.409Z,2.40
2023-05-11T07:45:29.297Z,2.50
2023-05-11T07:47:56.199Z,3.60
2023-05-11T07:50:24.486Z,2.37
2023-05-11T07:52:52.163Z,2.40
2023-05-11T07:55:20.524Z,2.40
2023-05-11T07:57:47.633Z,1.90
2023-05-11T08:00:15.484Z,1.93
2023-05-11T08:02:42.920Z,2.07
2023-05-11T08:05:10.232Z,2.10
2023-05-11T08:07:39.612Z,2.20
2023-05-11T08:10:08.782Z,2.30
2023-05-11T08:12:36.917Z,2.27
2023-05-11T08:15:05.593Z,2.20
2023-05-11T08:17:34.150Z,1.67
2023-05-11T08:20:01.400Z,2.07
2023-05-11T08:22:28.262Z,2.00
2023-05-11T08:24:55.140Z,2.20
2023-05-11T08:27:22.022Z,2.13
2023-05-11T08:32:16.136Z,2.50
2023-05-11T08:34:44.299Z,1.80
2023-05-11T08:37:11.207Z,1.83
2023-05-11T08:39:46.522Z,1.67
2023-05-11T08:42:17.129Z,1.93
2023-05-11T08:44:45.078Z,1.87
2023-05-11T08:49:42.198Z,1.80
2023-05-11T08:52:10.894Z,1.80
2023-05-11T08:54:37.810Z,1.70
2023-05-11T08:57:05.182Z,1.97
2023-05-11T08:59:34.237Z,1.80
2023-05-11T09:02:02.286Z,1.80
2023-05-11T09:04:29.593Z,1.83
2023-05-11T09:06:57.597Z,1.50
2023-05-11T09:09:24.514Z,1.63
2023-05-11T09:11:54.136Z,1.83
2023-05-11T09:14:27.017Z,1.90
2023-05-11T09:16:55.836Z,1.43
2023-05-11T09:19:22.802Z,1.83
2023-05-11T09:21:52.553Z,1.90
2023-05-11T09:24:21.819Z,1.90
2023-05-11T09:26:48.935Z,1.43
2023-05-11T09:29:21.252Z,1.87
2023-05-11T09:31:48.418Z,1.97
2023-05-11T09:34:23.531Z,1.80
2023-05-11T09:36:53.116Z,1.40
2023-05-11T09:39:39.956Z,1.50
2023-05-11T09:42:20.576Z,2.10
2023-05-11T09:44:48.637Z,1.60
2023-05-11T09:47:18.888Z,1.50
2023-05-11T09:49:47.721Z,1.47
2023-05-11T09:52:17.439Z,1.83
2023-05-11T09:54:47.878Z,2.10
2023-05-11T09:57:30.174Z,2.00
2023-05-11T09:59:59.826Z,1.80
2023-05-11T10:02:30.980Z,1.90
2023-05-11T10:05:01.716Z,2.30
2023-05-11T10:07:36.103Z,1.73
2023-05-11T10:10:08.929Z,1.90
2023-05-11T10:12:39.265Z,1.70
2023-05-11T10:15:09.302Z,2.03
2023-05-11T10:17:37.229Z,1.83
2023-05-11T10:20:06.632Z,1.83
2023-05-11T10:22:33.722Z,1.80
2023-05-11T10:25:01.613Z,1.70
2023-05-11T10:27:29.418Z,1.70
2023-05-11T10:29:58.505Z,2.10
2023-05-11T10:32:26.221Z,1.57
2023-05-11T10:34:53.153Z,1.40
2023-05-11T10:37:21.536Z,1.60
2023-05-11T10:39:52.167Z,1.43
2023-05-11T10:43:17.396Z,1.63
2023-05-11T10:46:37.085Z,1.60
2023-05-11T10:49:16.188Z,1.53
2023-05-11T10:52:07.258Z,1.80
2023-05-11T10:55:10.353Z,1.67
2023-05-11T10:58:14.379Z,1.90
2023-05-11T11:01:18.987Z,1.43
2023-05-11T11:03:59.496Z,1.53
2023-05-11T11:06:28.521Z,1.90
2023-05-11T11:09:00.086Z,1.40
2023-05-11T11:11:33.323Z,2.10
2023-05-11T11:14:03.768Z,1.90
2023-05-11T11:16:30.997Z,2.03
2023-05-11T11:19:29.099Z,2.20
2023-05-11T11:22:01.066Z,2.40
2023-05-11T11:24:42.769Z,1.83
2023-05-11T11:27:10.183Z,1.60
2023-05-11T11:29:39.940Z,2.33
2023-05-11T11:32:23.059Z,2.10
2023-05-11T11:34:51.268Z,2.70
2023-05-11T11:37:18.925Z,2.30
2023-05-11T11:39:50.071Z,1.93
2023-05-11T11:42:33.708Z,1.50
2023-05-11T11:45:40.290Z,1.83
2023-05-11T11:48:13.465Z,1.60
2023-05-11T11:50:43.066Z,2.57
2023-05-11T11:53:37.630Z,1.73
2023-05-11T11:56:26.375Z,1.43
2023-05-11T11:58:53.116Z,1.90
2023-05-11T12:01:24.331Z,1.63
2023-05-11T12:04:03.940Z,1.83
2023-05-11T12:06:40.963Z,1.70
2023-05-11T12:09:08.397Z,1.40
2023-05-11T12:11:35.482Z,1.53
2023-05-11T12:14:03.357Z,1.87
2023-05-11T12:16:32.200Z,1.63
2023-05-11T12:19:02.011Z,1.83
2023-05-11T12:21:33.306Z,1.90
2023-05-11T12:24:03.547Z,1.87
2023-05-11T12:26:32.868Z,1.70
2023-05-11T12:29:14.776Z,1.50
2023-05-11T12:31:44.272Z,1.77
2023-05-11T12:34:16.354Z,1.60
2023-05-11T12:36:46.633Z,1.60
2023-05-11T12:39:25.894Z,1.87
2023-05-11T12:41:55.564Z,1.57
2023-05-11T12:44:26.465Z,1.97
2023-05-11T12:46:53.728Z,1.47
2023-05-11T12:49:26.568Z,1.50
2023-05-11T12:52:00.477Z,1.60
2023-05-11T12:54:51.532Z,1.40
2023-05-11T12:57:28.550Z,2.83
2023-05-11T13:00:16.115Z,2.03
2023-05-11T13:02:52.886Z,1.50
2023-05-11T13:05:25.710Z,1.43
2023-05-11T13:08:04.356Z,1.63
2023-05-11T13:10:32.089Z,1.83
2023-05-11T13:12:59.300Z,1.90
2023-05-11T13:15:28.426Z,1.53
2023-05-11T13:18:03.445Z,1.63
2023-05-11T13:20:33.691Z,1.67
2023-05-11T13:23:09.274Z,5.93
2023-05-11T13:25:53.316Z,1.80
2023-05-11T13:28:24.271Z,1.70
2023-05-11T13:30:59.995Z,1.87
2023-05-11T13:33:27.594Z,1.60
2023-05-11T13:35:54.503Z,1.90
2023-05-11T13:38:21.413Z,1.93
2023-05-11T13:40:48.632Z,2.30
2023-05-11T13:43:15.655Z,1.57
2023-05-11T13:45:42.731Z,1.30
2023-05-11T13:48:10.764Z,1.67
2023-05-11T13:50:37.828Z,1.73
2023-05-11T13:53:04.729Z,1.33
2023-05-11T13:55:31.905Z,1.90
2023-05-11T13:57:58.889Z,1.67
2023-05-11T14:00:26.128Z,2.10
2023-05-11T14:02:53.515Z,1.93
2023-05-11T14:05:21.069Z,1.60
2023-05-11T14:07:49.126Z,1.80
2023-05-11T14:10:19.771Z,2.00
2023-05-11T14:12:46.880Z,1.47
2023-05-11T14:15:13.796Z,1.73
2023-05-11T14:17:42.956Z,1.40
2023-05-11T14:20:12.082Z,1.97
2023-05-11T14:22:39.563Z,1.70
2023-05-11T14:25:07.389Z,2.03
2023-05-11T14:27:34.251Z,1.80
2023-05-11T14:30:01.116Z,1.77
2023-05-11T14:32:28.111Z,2.40
2023-05-11T14:34:55.923Z,1.87
2023-05-11T14:37:22.776Z,2.60
2023-05-11T14:39:49.617Z,1.60
2023-05-11T14:42:16.486Z,1.77
2023-05-11T14:44:43.533Z,2.20
2023-05-11T14:47:10.615Z,2.20
2023-05-11T14:49:37.487Z,2.10
2023-05-11T14:52:04.646Z,1.80
2023-05-11T14:54:31.499Z,1.80
2023-05-11T14:56:59.646Z,1.70
2023-05-11T14:59:26.934Z,2.00
2023-05-11T15:01:54.051Z,1.80
2023-05-11T15:04:21.080Z,1.63
2023-05-11T15:06:48.605Z,1.60
2023-05-11T15:09:15.461Z,1.77
2023-05-11T15:11:42.343Z,1.60
2023-05-11T15:14:09.350Z,1.80
2023-05-11T15:16:37.366Z,1.33
2023-05-11T15:19:06.359Z,1.43
2023-05-11T15:21:33.378Z,1.77
2023-05-11T15:24:00.377Z,1.63
2023-05-11T15:26:27.258Z,1.40
2023-05-11T15:28:54.184Z,1.60
2023-05-11T15:31:22.269Z,2.17
2023-05-11T15:33:49.214Z,1.60
2023-05-11T15:36:16.309Z,1.60
2023-05-11T15:38:43.906Z,1.60
2023-05-11T15:41:10.844Z,1.40
2023-05-11T15:43:37.731Z,1.20
2023-05-11T15:46:05.716Z,2.10
2023-05-11T15:48:33.082Z,1.70
2023-05-11T15:51:01.176Z,1.90
2023-05-11T15:53:28.727Z,1.50
2023-05-11T15:55:56.254Z,1.87
2023-05-11T15:58:23.316Z,1.63
2023-05-11T16:00:50.343Z,1.53
2023-05-11T16:03:17.732Z,1.87
2023-05-11T16:05:45.505Z,1.80
2023-05-11T16:08:13.172Z,2.07
2023-05-11T16:10:40.246Z,1.57
2023-05-11T16:13:07.886Z,1.77
2023-05-11T16:15:34.736Z,2.00
2023-05-11T16:18:04.643Z,1.80
2023-05-11T16:20:32.749Z,2.03
2023-05-11T16:22:59.657Z,1.90
2023-05-11T16:25:26.759Z,1.57
2023-05-11T16:27:53.893Z,2.07
2023-05-11T16:30:24.350Z,1.50
2023-05-11T16:32:52.894Z,1.57
2023-05-11T16:35:20.460Z,2.03
2023-05-11T16:37:47.888Z,1.90
2023-05-11T16:40:18.304Z,1.60
2023-05-11T16:42:46.846Z,2.00
2023-05-11T16:45:14.056Z,1.77
2023-05-11T16:47:41.267Z,2.07
2023-05-11T16:50:08.912Z,1.90
2023-05-11T16:52:35.806Z,1.73
2023-05-11T16:55:03.668Z,1.70
2023-05-11T16:57:31.550Z,2.00
2023-05-11T16:59:58.462Z,1.97
2023-05-11T17:02:25.407Z,1.40
2023-05-11T17:04:52.350Z,1.90
2023-05-11T17:07:19.279Z,2.57
2023-05-11T17:09:46.431Z,2.03
2023-05-11T17:12:13.350Z,2.40
2023-05-11T17:14:40.209Z,2.17
2023-05-11T17:17:08.119Z,2.07
2023-05-11T17:19:35.044Z,1.90
2023-05-11T17:22:02.223Z,1.87
2023-05-11T17:24:29.170Z,1.87
2023-05-11T17:26:56.115Z,2.20
2023-05-11T17:29:23.424Z,1.93
2023-05-11T17:31:51.681Z,1.67
2023-05-11T17:34:19.753Z,1.90
2023-05-11T17:36:47.898Z,1.60
2023-05-11T17:39:16.328Z,2.93
2023-05-11T17:41:43.729Z,3.30
2023-05-11T17:44:11.176Z,2.53
2023-05-11T17:46:38.313Z,2.00
2023-05-11T17:49:06.479Z,1.80
2023-05-11T17:51:33.702Z,2.50
2023-05-11T17:54:00.597Z,2.60
2023-05-11T17:56:27.509Z,2.40
2023-05-11T17:58:54.638Z,2.40
2023-05-11T18:01:22.643Z,2.30
2023-05-11T18:03:50.199Z,2.13
2023-05-11T18:06:17.373Z,2.10
2023-05-11T18:08:44.376Z,2.27
2023-05-11T18:11:12.878Z,2.50
2023-05-11T18:13:39.966Z,2.87
2023-05-11T18:16:07.442Z,2.53
2023-05-11T18:18:34.832Z,2.30
2023-05-11T18:21:06.384Z,2.07
2023-05-11T18:23:33.393Z,2.20
2023-05-11T18:26:00.548Z,2.97
2023-05-11T18:28:27.526Z,2.10
2023-05-11T18:30:54.620Z,2.67
2023-05-11T18:33:22.679Z,2.30
2023-05-11T18:35:52.720Z,3.00
2023-05-11T18:38:19.600Z,2.80
2023-05-11T18:40:46.862Z,2.87
2023-05-11T18:43:14.056Z,3.03
2023-05-11T18:45:41.390Z,2.70
2023-05-11T18:48:08.712Z,2.70
2023-05-11T18:50:35.773Z,2.67
2023-05-11T18:53:02.800Z,2.53
2023-05-11T18:55:33.295Z,2.13
2023-05-11T18:58:08.157Z,2.87
2023-05-11T19:00:37.520Z,2.50
2023-05-11T19:03:04.738Z,2.93
2023-05-11T19:05:31.650Z,2.63
2023-05-11T19:07:58.530Z,2.77
2023-05-11T19:10:25.404Z,2.60
2023-05-11T19:12:52.802Z,2.90
2023-05-11T19:15:19.896Z,2.90
2023-05-11T19:17:47.092Z,3.37
2023-05-11T19:20:14.824Z,2.73
2023-05-11T19:22:41.744Z,3.47
2023-05-11T19:25:09.613Z,3.30
2023-05-11T19:27:36.460Z,3.63
2023-05-11T19:30:04.613Z,3.33
2023-05-11T19:32:31.722Z,3.77
2023-05-11T19:34:58.627Z,3.60
2023-05-11T19:37:25.560Z,3.30
2023-05-11T19:39:52.421Z,3.90
2023-05-11T19:42:25.974Z,3.60
2023-05-11T19:45:02.849Z,3.67
2023-05-11T19:47:29.932Z,4.00
2023-05-11T19:49:57.146Z,3.43
2023-05-11T19:52:24.300Z,3.83
2023-05-11T19:54:51.626Z,3.73
2023-05-11T19:57:19.792Z,4.33
2023-05-11T19:59:46.889Z,4.53
2023-05-11T20:02:13.835Z,4.13
2023-05-11T20:04:45.533Z,3.87
2023-05-11T20:07:12.907Z,3.53
2023-05-11T20:09:41.164Z,3.33
2023-05-11T20:12:08.389Z,3.50
2023-05-11T20:14:36.815Z,3.87
2023-05-11T20:17:07.224Z,3.47
2023-05-11T20:19:34.398Z,3.87
2023-05-11T20:22:01.341Z,3.43
2023-05-11T20:24:28.216Z,4.03
2023-05-11T20:26:55.263Z,3.93
2023-05-11T20:29:22.404Z,2.73
2023-05-11T20:31:49.397Z,4.00
2023-05-11T20:34:16.545Z,3.50
2023-05-11T20:36:43.588Z,3.80
2023-05-11T20:39:10.691Z,3.03
2023-05-11T20:41:37.987Z,4.00
2023-05-11T20:44:05.537Z,3.43
2023-05-11T20:46:32.437Z,3.80
2023-05-11T20:48:59.472Z,3.30
2023-05-11T20:51:26.839Z,3.90
2023-05-11T20:53:53.765Z,3.70
2023-05-11T20:56:21.346Z,4.10
2023-05-11T20:58:48.322Z,3.83
2023-05-11T21:01:15.338Z,3.67
2023-05-11T21:03:42.366Z,4.90
2023-05-11T21:06:09.368Z,4.53
2023-05-11T21:08:36.538Z,3.90
2023-05-11T21:11:03.562Z,4.87
2023-05-11T21:13:30.782Z,4.33
2023-05-11T21:15:57.737Z,3.97
2023-05-11T21:18:31.855Z,3.90
2023-05-11T21:20:59.455Z,5.17
2023-05-11T21:23:28.808Z,3.90
2023-05-11T21:25:58.054Z,5.10
2023-05-11T21:28:26.977Z,3.97
2023-05-11T21:30:54.668Z,4.30
2023-05-11T21:33:21.702Z,4.23
2023-05-11T21:35:48.569Z,4.30
2023-05-11T21:38:17.143Z,3.93
2023-05-11T21:40:44.853Z,4.53
2023-05-11T21:43:13.889Z,4.97
2023-05-11T21:45:41.070Z,4.30
2023-05-11T21:48:07.976Z,4.50
2023-05-11T21:50:35.405Z,4.43
2023-05-11T21:53:02.373Z,4.17
2023-05-11T21:55:29.256Z,4.80
2023-05-11T21:57:56.157Z,4.43
2023-05-11T22:00:23.552Z,5.13
2023-05-11T22:02:51.076Z,4.57
2023-05-11T22:05:18.617Z,4.30
2023-05-11T22:07:45.486Z,4.20
2023-05-11T22:10:12.538Z,4.30
2023-05-11T22:12:39.651Z,4.33
2023-05-11T22:15:08.498Z,4.53
2023-05-11T22:17:36.847Z,4.67
2023-05-11T22:20:06.630Z,4.40
2023-05-11T22:22:34.386Z,5.23
2023-05-11T22:25:01.502Z,4.47
2023-05-11T22:27:29.475Z,4.00
2023-05-11T22:29:56.385Z,4.70
2023-05-11T22:32:23.326Z,4.03
2023-05-11T22:35:00.648Z,5.00
2023-05-11T22:37:28.445Z,4.70
2023-05-11T22:39:55.485Z,5.50
2023-05-11T22:42:22.473Z,5.50
2023-05-11T22:44:49.533Z,4.43
2023-05-11T22:47:16.380Z,4.47
2023-05-11T22:49:43.278Z,4.17
2023-05-11T22:52:10.240Z,4.67
2023-05-11T22:54:37.108Z,4.10
2023-05-11T22:57:04.190Z,4.60
2023-05-11T22:59:34.415Z,4.20
2023-05-11T23:02:04.667Z,5.10
2023-05-11T23:04:34.860Z,4.63
2023-05-11T23:07:01.822Z,4.90
2023-05-11T23:09:28.956Z,5.20
2023-05-11T23:11:55.972Z,4.93
2023-05-11T23:14:23.671Z,4.63
2023-05-11T23:16:50.857Z,4.47
2023-05-11T23:19:20.655Z,4.40
2023-05-11T23:21:47.820Z,4.80
2023-05-11T23:24:14.746Z,4.67
2023-05-11T23:26:41.826Z,4.90
2023-05-11T23:29:08.978Z,4.40
2023-05-11T23:31:36.072Z,4.63
2023-05-11T23:34:03.224Z,4.20
2023-05-11T23:36:30.306Z,4.87
2023-05-11T23:38:57.398Z,5.07
2023-05-11T23:41:24.746Z,4.93
2023-05-11T23:43:51.796Z,4.77
2023-05-11T23:46:18.722Z,5.33
2023-05-11T23:48:45.674Z,4.83
2023-05-11T23:51:13.036Z,4.60
2023-05-11T23:53:40.001Z,4.23
2023-05-11T23:56:07.420Z,5.60
2023-05-11T23:58:34.518Z,4.50
